<?xml version="1.0" encoding="utf-8"?>
<gpx xmlns:xsi="http://www.w3.org/2001/XMLSchema-instance" xmlns:xsd="http://www.w3.org/2001/XMLSchema" version="1.1" creator="Shapelink.com" xmlns="http://www.topografix.com/GPX/1/1" xmlns:gpxtpx="http://www.garmin.com/xmlschemas/TrackPointExtension/v1">
  <metadata>
    <name>Sykling 10.92 km, 2017-11-25</name>
    <desc></desc>
    <author><name>Jörgen Larsson</name></author> 
    <time>2017-11-25T13:07:18Z</time>
  </metadata>
  <trk>
    <name>Sykling 10.92 km, 2017-11-25</name>
    <trkseg>
      <trkpt lat="59.203786008593" lon="17.75393959777">
        <ele>0</ele>
        <time>2017-11-25T13:07:18Z</time>
      </trkpt>
      <trkpt lat="59.203909976894" lon="17.75393624501">
        <ele>0</ele>
        <time>2017-11-25T13:07:21Z</time>
      </trkpt>
      <trkpt lat="59.204414231998" lon="17.75397144899">
        <ele>0</ele>
        <time>2017-11-25T13:07:33Z</time>
      </trkpt>
      <trkpt lat="59.204656804184" lon="17.753966000755">
        <ele>0</ele>
        <time>2017-11-25T13:07:38Z</time>
      </trkpt>
      <trkpt lat="59.204743640668" lon="17.753951919163">
        <ele>0</ele>
        <time>2017-11-25T13:07:40Z</time>
      </trkpt>
      <trkpt lat="59.204905495157" lon="17.754029787014">
        <ele>0</ele>
        <time>2017-11-25T13:07:44Z</time>
      </trkpt>
      <trkpt lat="59.204900633655" lon="17.754598582748">
        <ele>0</ele>
        <time>2017-11-25T13:07:50Z</time>
      </trkpt>
      <trkpt lat="59.204885462416" lon="17.754951796014">
        <ele>0</ele>
        <time>2017-11-25T13:07:53Z</time>
      </trkpt>
      <trkpt lat="59.204887222615" lon="17.75507618341">
        <ele>0</ele>
        <time>2017-11-25T13:07:54Z</time>
      </trkpt>
      <trkpt lat="59.204917900369" lon="17.755499888455">
        <ele>0</ele>
        <time>2017-11-25T13:07:58Z</time>
      </trkpt>
      <trkpt lat="59.204913541781" lon="17.755615893951">
        <ele>0</ele>
        <time>2017-11-25T13:08:00Z</time>
      </trkpt>
      <trkpt lat="59.204910775754" lon="17.755734581655">
        <ele>0</ele>
        <time>2017-11-25T13:08:04Z</time>
      </trkpt>
      <trkpt lat="59.204914128514" lon="17.755771378196">
        <ele>0</ele>
        <time>2017-11-25T13:08:06Z</time>
      </trkpt>
      <trkpt lat="59.205047484543" lon="17.755752518921">
        <ele>0</ele>
        <time>2017-11-25T13:08:11Z</time>
      </trkpt>
      <trkpt lat="59.205620303589" lon="17.755386816624">
        <ele>0</ele>
        <time>2017-11-25T13:08:20Z</time>
      </trkpt>
      <trkpt lat="59.20577360854" lon="17.755294615724">
        <ele>0</ele>
        <time>2017-11-25T13:08:22Z</time>
      </trkpt>
      <trkpt lat="59.206357407875" lon="17.75493788206">
        <ele>0</ele>
        <time>2017-11-25T13:08:29Z</time>
      </trkpt>
      <trkpt lat="59.206825788447" lon="17.754651388718">
        <ele>0</ele>
        <time>2017-11-25T13:08:34Z</time>
      </trkpt>
      <trkpt lat="59.207018907423" lon="17.754542340199">
        <ele>0</ele>
        <time>2017-11-25T13:08:36Z</time>
      </trkpt>
      <trkpt lat="59.207210182381" lon="17.754435890069">
        <ele>0</ele>
        <time>2017-11-25T13:08:38Z</time>
      </trkpt>
      <trkpt lat="59.207399361864" lon="17.754313346691">
        <ele>0</ele>
        <time>2017-11-25T13:08:40Z</time>
      </trkpt>
      <trkpt lat="59.207585859139" lon="17.754184852164">
        <ele>0</ele>
        <time>2017-11-25T13:08:42Z</time>
      </trkpt>
      <trkpt lat="59.207869167359" lon="17.754006988246">
        <ele>0</ele>
        <time>2017-11-25T13:08:45Z</time>
      </trkpt>
      <trkpt lat="59.208065052362" lon="17.753891988578">
        <ele>0</ele>
        <time>2017-11-25T13:08:47Z</time>
      </trkpt>
      <trkpt lat="59.208367219857" lon="17.753750083011">
        <ele>0</ele>
        <time>2017-11-25T13:08:50Z</time>
      </trkpt>
      <trkpt lat="59.208564948878" lon="17.753672969531">
        <ele>0</ele>
        <time>2017-11-25T13:08:52Z</time>
      </trkpt>
      <trkpt lat="59.208753290171" lon="17.753612955127">
        <ele>0</ele>
        <time>2017-11-25T13:08:54Z</time>
      </trkpt>
      <trkpt lat="59.2089956109" lon="17.753596107508">
        <ele>0</ele>
        <time>2017-11-25T13:08:57Z</time>
      </trkpt>
      <trkpt lat="59.209053865105" lon="17.753577583509">
        <ele>0</ele>
        <time>2017-11-25T13:08:58Z</time>
      </trkpt>
      <trkpt lat="59.209163500357" lon="17.753310284718">
        <ele>0</ele>
        <time>2017-11-25T13:09:02Z</time>
      </trkpt>
      <trkpt lat="59.209189484247" lon="17.753234931437">
        <ele>0</ele>
        <time>2017-11-25T13:09:03Z</time>
      </trkpt>
      <trkpt lat="59.209434235727" lon="17.752963525515">
        <ele>0</ele>
        <time>2017-11-25T13:09:09Z</time>
      </trkpt>
      <trkpt lat="59.209556024734" lon="17.75258005359">
        <ele>0</ele>
        <time>2017-11-25T13:09:14Z</time>
      </trkpt>
      <trkpt lat="59.209584774651" lon="17.752343600191">
        <ele>0</ele>
        <time>2017-11-25T13:09:22Z</time>
      </trkpt>
      <trkpt lat="59.209580080787" lon="17.751978316989">
        <ele>0</ele>
        <time>2017-11-25T13:09:29Z</time>
      </trkpt>
      <trkpt lat="59.209583349728" lon="17.751894330351">
        <ele>0</ele>
        <time>2017-11-25T13:09:30Z</time>
      </trkpt>
      <trkpt lat="59.209698181758" lon="17.751242469988">
        <ele>0</ele>
        <time>2017-11-25T13:09:37Z</time>
      </trkpt>
      <trkpt lat="59.209808906657" lon="17.750624975415">
        <ele>0</ele>
        <time>2017-11-25T13:09:43Z</time>
      </trkpt>
      <trkpt lat="59.209921559393" lon="17.749785025216">
        <ele>0</ele>
        <time>2017-11-25T13:09:51Z</time>
      </trkpt>
      <trkpt lat="59.209971347879" lon="17.749112042465">
        <ele>0</ele>
        <time>2017-11-25T13:09:57Z</time>
      </trkpt>
      <trkpt lat="59.210027841885" lon="17.747984341639">
        <ele>0</ele>
        <time>2017-11-25T13:10:07Z</time>
      </trkpt>
      <trkpt lat="59.210026752238" lon="17.74785350018">
        <ele>0</ele>
        <time>2017-11-25T13:10:08Z</time>
      </trkpt>
      <trkpt lat="59.210000097796" lon="17.74676385318">
        <ele>0</ele>
        <time>2017-11-25T13:10:16Z</time>
      </trkpt>
      <trkpt lat="59.209976460838" lon="17.745658615846">
        <ele>0</ele>
        <time>2017-11-25T13:10:25Z</time>
      </trkpt>
      <trkpt lat="59.209968246576" lon="17.744826963728">
        <ele>0</ele>
        <time>2017-11-25T13:10:33Z</time>
      </trkpt>
      <trkpt lat="59.210024740582" lon="17.744392110756">
        <ele>0</ele>
        <time>2017-11-25T13:10:37Z</time>
      </trkpt>
      <trkpt lat="59.210177877895" lon="17.743752404148">
        <ele>0</ele>
        <time>2017-11-25T13:10:43Z</time>
      </trkpt>
      <trkpt lat="59.210220038852" lon="17.743538414241">
        <ele>0</ele>
        <time>2017-11-25T13:10:45Z</time>
      </trkpt>
      <trkpt lat="59.210244011086" lon="17.743313108769">
        <ele>0</ele>
        <time>2017-11-25T13:10:47Z</time>
      </trkpt>
      <trkpt lat="59.21021601554" lon="17.742860150893">
        <ele>0</ele>
        <time>2017-11-25T13:10:51Z</time>
      </trkpt>
      <trkpt lat="59.210197240084" lon="17.742750264184">
        <ele>0</ele>
        <time>2017-11-25T13:10:52Z</time>
      </trkpt>
      <trkpt lat="59.210055250698" lon="17.741902183542">
        <ele>0</ele>
        <time>2017-11-25T13:11:00Z</time>
      </trkpt>
      <trkpt lat="59.210008814972" lon="17.741568416284">
        <ele>0</ele>
        <time>2017-11-25T13:11:03Z</time>
      </trkpt>
      <trkpt lat="59.210024656763" lon="17.741103807567">
        <ele>0</ele>
        <time>2017-11-25T13:11:07Z</time>
      </trkpt>
      <trkpt lat="59.210217859558" lon="17.740650765872">
        <ele>0</ele>
        <time>2017-11-25T13:11:12Z</time>
      </trkpt>
      <trkpt lat="59.210462946314" lon="17.740278106598">
        <ele>0</ele>
        <time>2017-11-25T13:11:17Z</time>
      </trkpt>
      <trkpt lat="59.210610719211" lon="17.739750549812">
        <ele>0</ele>
        <time>2017-11-25T13:11:22Z</time>
      </trkpt>
      <trkpt lat="59.210640055861" lon="17.739518203544">
        <ele>0</ele>
        <time>2017-11-25T13:11:24Z</time>
      </trkpt>
      <trkpt lat="59.210688670881" lon="17.738824685138">
        <ele>0</ele>
        <time>2017-11-25T13:11:30Z</time>
      </trkpt>
      <trkpt lat="59.210694119116" lon="17.738340546594">
        <ele>0</ele>
        <time>2017-11-25T13:11:34Z</time>
      </trkpt>
      <trkpt lat="59.210595631791" lon="17.737859090258">
        <ele>0</ele>
        <time>2017-11-25T13:11:39Z</time>
      </trkpt>
      <trkpt lat="59.210564032028" lon="17.737646609093">
        <ele>0</ele>
        <time>2017-11-25T13:11:42Z</time>
      </trkpt>
      <trkpt lat="59.210781961428" lon="17.737469834822">
        <ele>0</ele>
        <time>2017-11-25T13:11:47Z</time>
      </trkpt>
      <trkpt lat="59.211242127738" lon="17.737427757684">
        <ele>0</ele>
        <time>2017-11-25T13:11:57Z</time>
      </trkpt>
      <trkpt lat="59.211504984122" lon="17.737300017528">
        <ele>0</ele>
        <time>2017-11-25T13:12:03Z</time>
      </trkpt>
      <trkpt lat="59.211590898597" lon="17.737237404735">
        <ele>0</ele>
        <time>2017-11-25T13:12:05Z</time>
      </trkpt>
      <trkpt lat="59.211787873247" lon="17.737104970715">
        <ele>0</ele>
        <time>2017-11-25T13:12:09Z</time>
      </trkpt>
      <trkpt lat="59.212313250739" lon="17.736889891161">
        <ele>0</ele>
        <time>2017-11-25T13:12:18Z</time>
      </trkpt>
      <trkpt lat="59.212855224393" lon="17.737082171947">
        <ele>0</ele>
        <time>2017-11-25T13:12:27Z</time>
      </trkpt>
      <trkpt lat="59.213206090727" lon="17.737326923427">
        <ele>0</ele>
        <time>2017-11-25T13:12:34Z</time>
      </trkpt>
      <trkpt lat="59.213250430978" lon="17.737333042214">
        <ele>0</ele>
        <time>2017-11-25T13:12:35Z</time>
      </trkpt>
      <trkpt lat="59.213460146116" lon="17.737066246337">
        <ele>0</ele>
        <time>2017-11-25T13:12:41Z</time>
      </trkpt>
      <trkpt lat="59.213489482766" lon="17.736998604404">
        <ele>0</ele>
        <time>2017-11-25T13:12:42Z</time>
      </trkpt>
      <trkpt lat="59.21354782079" lon="17.736856531199">
        <ele>0</ele>
        <time>2017-11-25T13:12:44Z</time>
      </trkpt>
      <trkpt lat="59.2136056559" lon="17.736702807153">
        <ele>0</ele>
        <time>2017-11-25T13:12:46Z</time>
      </trkpt>
      <trkpt lat="59.213693582031" lon="17.736449170859">
        <ele>0</ele>
        <time>2017-11-25T13:12:49Z</time>
      </trkpt>
      <trkpt lat="59.213952834198" lon="17.735926391756">
        <ele>0</ele>
        <time>2017-11-25T13:12:56Z</time>
      </trkpt>
      <trkpt lat="59.214297665564" lon="17.735627325564">
        <ele>0</ele>
        <time>2017-11-25T13:13:03Z</time>
      </trkpt>
      <trkpt lat="59.214793287311" lon="17.735282075103">
        <ele>0</ele>
        <time>2017-11-25T13:13:13Z</time>
      </trkpt>
      <trkpt lat="59.215114816995" lon="17.735153999671">
        <ele>0</ele>
        <time>2017-11-25T13:13:19Z</time>
      </trkpt>
      <trkpt lat="59.215501138766" lon="17.735078311114">
        <ele>0</ele>
        <time>2017-11-25T13:13:27Z</time>
      </trkpt>
      <trkpt lat="59.215681433435" lon="17.735020476004">
        <ele>0</ele>
        <time>2017-11-25T13:13:32Z</time>
      </trkpt>
      <trkpt lat="59.215817136396" lon="17.734961718885">
        <ele>0</ele>
        <time>2017-11-25T13:13:36Z</time>
      </trkpt>
      <trkpt lat="59.215920485223" lon="17.734919222652">
        <ele>0</ele>
        <time>2017-11-25T13:13:39Z</time>
      </trkpt>
      <trkpt lat="59.21604059785" lon="17.734853508556">
        <ele>0</ele>
        <time>2017-11-25T13:13:42Z</time>
      </trkpt>
      <trkpt lat="59.21614453341" lon="17.734807156649">
        <ele>0</ele>
        <time>2017-11-25T13:13:44Z</time>
      </trkpt>
      <trkpt lat="59.216203793443" lon="17.734781759492">
        <ele>0</ele>
        <time>2017-11-25T13:13:45Z</time>
      </trkpt>
      <trkpt lat="59.216760016327" lon="17.734520998583">
        <ele>0</ele>
        <time>2017-11-25T13:13:55Z</time>
      </trkpt>
      <trkpt lat="59.217296038832" lon="17.734290915428">
        <ele>0</ele>
        <time>2017-11-25T13:14:07Z</time>
      </trkpt>
      <trkpt lat="59.217436770933" lon="17.734270044497">
        <ele>0</ele>
        <time>2017-11-25T13:14:10Z</time>
      </trkpt>
      <trkpt lat="59.217653945962" lon="17.734386552907">
        <ele>0</ele>
        <time>2017-11-25T13:14:15Z</time>
      </trkpt>
      <trkpt lat="59.217732400546" lon="17.734457212324">
        <ele>0</ele>
        <time>2017-11-25T13:14:17Z</time>
      </trkpt>
      <trkpt lat="59.21780750237" lon="17.734537343288">
        <ele>0</ele>
        <time>2017-11-25T13:14:19Z</time>
      </trkpt>
      <trkpt lat="59.217879083796" lon="17.734606074868">
        <ele>0</ele>
        <time>2017-11-25T13:14:21Z</time>
      </trkpt>
      <trkpt lat="59.218056780076" lon="17.734758038715">
        <ele>0</ele>
        <time>2017-11-25T13:14:26Z</time>
      </trkpt>
      <trkpt lat="59.218189130277" lon="17.734866500501">
        <ele>0</ele>
        <time>2017-11-25T13:14:30Z</time>
      </trkpt>
      <trkpt lat="59.218306141601" lon="17.734947302017">
        <ele>0</ele>
        <time>2017-11-25T13:14:34Z</time>
      </trkpt>
      <trkpt lat="59.218389960601" lon="17.73496968169">
        <ele>0</ele>
        <time>2017-11-25T13:14:37Z</time>
      </trkpt>
      <trkpt lat="59.218469840108" lon="17.734987116042">
        <ele>0</ele>
        <time>2017-11-25T13:14:40Z</time>
      </trkpt>
      <trkpt lat="59.218591126201" lon="17.735034641415">
        <ele>0</ele>
        <time>2017-11-25T13:14:45Z</time>
      </trkpt>
      <trkpt lat="59.21869179282" lon="17.735083759349">
        <ele>0</ele>
        <time>2017-11-25T13:14:49Z</time>
      </trkpt>
      <trkpt lat="59.218769576852" lon="17.735148299979">
        <ele>0</ele>
        <time>2017-11-25T13:14:52Z</time>
      </trkpt>
      <trkpt lat="59.218869572919" lon="17.735257516136">
        <ele>0</ele>
        <time>2017-11-25T13:14:56Z</time>
      </trkpt>
      <trkpt lat="59.218942663087" lon="17.73535692547">
        <ele>0</ele>
        <time>2017-11-25T13:14:59Z</time>
      </trkpt>
      <trkpt lat="59.219034863987" lon="17.73550947605">
        <ele>0</ele>
        <time>2017-11-25T13:15:03Z</time>
      </trkpt>
      <trkpt lat="59.219133770407" lon="17.735670576168">
        <ele>0</ele>
        <time>2017-11-25T13:15:07Z</time>
      </trkpt>
      <trkpt lat="59.219235861949" lon="17.735835112865">
        <ele>0</ele>
        <time>2017-11-25T13:15:11Z</time>
      </trkpt>
      <trkpt lat="59.219379527715" lon="17.736000906847">
        <ele>0</ele>
        <time>2017-11-25T13:15:15Z</time>
      </trkpt>
      <trkpt lat="59.21975126498" lon="17.736361999099">
        <ele>0</ele>
        <time>2017-11-25T13:15:23Z</time>
      </trkpt>
      <trkpt lat="59.219910185804" lon="17.736885616392">
        <ele>0</ele>
        <time>2017-11-25T13:15:28Z</time>
      </trkpt>
      <trkpt lat="59.219998028116" lon="17.737229693387">
        <ele>0</ele>
        <time>2017-11-25T13:15:31Z</time>
      </trkpt>
      <trkpt lat="59.220090145197" lon="17.737368916746">
        <ele>0</ele>
        <time>2017-11-25T13:15:33Z</time>
      </trkpt>
      <trkpt lat="59.220289550598" lon="17.737483832595">
        <ele>0</ele>
        <time>2017-11-25T13:15:37Z</time>
      </trkpt>
      <trkpt lat="59.220481831384" lon="17.73758567268">
        <ele>0</ele>
        <time>2017-11-25T13:15:41Z</time>
      </trkpt>
      <trkpt lat="59.220614684499" lon="17.737725231315">
        <ele>0</ele>
        <time>2017-11-25T13:15:44Z</time>
      </trkpt>
      <trkpt lat="59.220812078244" lon="17.738105518118">
        <ele>0</ele>
        <time>2017-11-25T13:15:50Z</time>
      </trkpt>
      <trkpt lat="59.220908302456" lon="17.738278688172">
        <ele>0</ele>
        <time>2017-11-25T13:15:52Z</time>
      </trkpt>
      <trkpt lat="59.221129752254" lon="17.738544226764">
        <ele>0</ele>
        <time>2017-11-25T13:15:55Z</time>
      </trkpt>
      <trkpt lat="59.221463268055" lon="17.738872126692">
        <ele>0</ele>
        <time>2017-11-25T13:15:59Z</time>
      </trkpt>
      <trkpt lat="59.221623697621" lon="17.739091145739">
        <ele>0</ele>
        <time>2017-11-25T13:16:01Z</time>
      </trkpt>
      <trkpt lat="59.221787647585" lon="17.73933246064">
        <ele>0</ele>
        <time>2017-11-25T13:16:03Z</time>
      </trkpt>
      <trkpt lat="59.221944389115" lon="17.739576457749">
        <ele>0</ele>
        <time>2017-11-25T13:16:05Z</time>
      </trkpt>
      <trkpt lat="59.222093670754" lon="17.739811653863">
        <ele>0</ele>
        <time>2017-11-25T13:16:07Z</time>
      </trkpt>
      <trkpt lat="59.222225098946" lon="17.740013825291">
        <ele>0</ele>
        <time>2017-11-25T13:16:09Z</time>
      </trkpt>
      <trkpt lat="59.222282682599" lon="17.740103260164">
        <ele>0</ele>
        <time>2017-11-25T13:16:10Z</time>
      </trkpt>
      <trkpt lat="59.222332471085" lon="17.740180625101">
        <ele>0</ele>
        <time>2017-11-25T13:16:11Z</time>
      </trkpt>
      <trkpt lat="59.222410422755" lon="17.740302330289">
        <ele>0</ele>
        <time>2017-11-25T13:16:13Z</time>
      </trkpt>
      <trkpt lat="59.222504467673" lon="17.740445912236">
        <ele>0</ele>
        <time>2017-11-25T13:16:18Z</time>
      </trkpt>
      <trkpt lat="59.222512095202" lon="17.740449684091">
        <ele>0</ele>
        <time>2017-11-25T13:16:21Z</time>
      </trkpt>
      <trkpt lat="59.222549813752" lon="17.740494527256">
        <ele>0</ele>
        <time>2017-11-25T13:16:38Z</time>
      </trkpt>
      <trkpt lat="59.222731784801" lon="17.740895601171">
        <ele>0</ele>
        <time>2017-11-25T13:16:54Z</time>
      </trkpt>
      <trkpt lat="59.222665232515" lon="17.741092994916">
        <ele>0</ele>
        <time>2017-11-25T13:16:57Z</time>
      </trkpt>
      <trkpt lat="59.22248376438" lon="17.741665227229">
        <ele>0</ele>
        <time>2017-11-25T13:17:04Z</time>
      </trkpt>
      <trkpt lat="59.222294836354" lon="17.742321027085">
        <ele>0</ele>
        <time>2017-11-25T13:17:11Z</time>
      </trkpt>
      <trkpt lat="59.222097107333" lon="17.743016976242">
        <ele>0</ele>
        <time>2017-11-25T13:17:18Z</time>
      </trkpt>
      <trkpt lat="59.221954195938" lon="17.743515112559">
        <ele>0</ele>
        <time>2017-11-25T13:17:23Z</time>
      </trkpt>
      <trkpt lat="59.221746408637" lon="17.744233944303">
        <ele>0</ele>
        <time>2017-11-25T13:17:30Z</time>
      </trkpt>
      <trkpt lat="59.221547087055" lon="17.745169448162">
        <ele>0</ele>
        <time>2017-11-25T13:17:38Z</time>
      </trkpt>
      <trkpt lat="59.22140752842" lon="17.746184999166">
        <ele>0</ele>
        <time>2017-11-25T13:17:46Z</time>
      </trkpt>
      <trkpt lat="59.221267299233" lon="17.747224773861">
        <ele>0</ele>
        <time>2017-11-25T13:17:54Z</time>
      </trkpt>
      <trkpt lat="59.221121202716" lon="17.748304614038">
        <ele>0</ele>
        <time>2017-11-25T13:18:02Z</time>
      </trkpt>
      <trkpt lat="59.220962868625" lon="17.749406833888">
        <ele>0</ele>
        <time>2017-11-25T13:18:10Z</time>
      </trkpt>
      <trkpt lat="59.2208140899" lon="17.75042758167">
        <ele>0</ele>
        <time>2017-11-25T13:18:17Z</time>
      </trkpt>
      <trkpt lat="59.220661706958" lon="17.751476827912">
        <ele>0</ele>
        <time>2017-11-25T13:18:24Z</time>
      </trkpt>
      <trkpt lat="59.220480071185" lon="17.752497994789">
        <ele>0</ele>
        <time>2017-11-25T13:18:31Z</time>
      </trkpt>
      <trkpt lat="59.220187207599" lon="17.753535338733">
        <ele>0</ele>
        <time>2017-11-25T13:18:39Z</time>
      </trkpt>
      <trkpt lat="59.219882106439" lon="17.754503448183">
        <ele>0</ele>
        <time>2017-11-25T13:18:47Z</time>
      </trkpt>
      <trkpt lat="59.219595110183" lon="17.755421852966">
        <ele>0</ele>
        <time>2017-11-25T13:18:55Z</time>
      </trkpt>
      <trkpt lat="59.219384389217" lon="17.756094500441">
        <ele>0</ele>
        <time>2017-11-25T13:19:01Z</time>
      </trkpt>
      <trkpt lat="59.219312640153" lon="17.756319973551">
        <ele>0</ele>
        <time>2017-11-25T13:19:03Z</time>
      </trkpt>
      <trkpt lat="59.218994211772" lon="17.757313815434">
        <ele>0</ele>
        <time>2017-11-25T13:19:12Z</time>
      </trkpt>
      <trkpt lat="59.218782820254" lon="17.757970369661">
        <ele>0</ele>
        <time>2017-11-25T13:19:18Z</time>
      </trkpt>
      <trkpt lat="59.2185677407" lon="17.758626337155">
        <ele>0</ele>
        <time>2017-11-25T13:19:24Z</time>
      </trkpt>
      <trkpt lat="59.218244869912" lon="17.759615736631">
        <ele>0</ele>
        <time>2017-11-25T13:19:33Z</time>
      </trkpt>
      <trkpt lat="59.218206648448" lon="17.759728221729">
        <ele>0</ele>
        <time>2017-11-25T13:19:34Z</time>
      </trkpt>
      <trkpt lat="59.217902301659" lon="17.760654840774">
        <ele>0</ele>
        <time>2017-11-25T13:19:42Z</time>
      </trkpt>
      <trkpt lat="59.21759124935" lon="17.761600151456">
        <ele>0</ele>
        <time>2017-11-25T13:19:50Z</time>
      </trkpt>
      <trkpt lat="59.217321603627" lon="17.762610924777">
        <ele>0</ele>
        <time>2017-11-25T13:19:58Z</time>
      </trkpt>
      <trkpt lat="59.217137453284" lon="17.763717503215">
        <ele>0</ele>
        <time>2017-11-25T13:20:06Z</time>
      </trkpt>
      <trkpt lat="59.217097387802" lon="17.763998799779">
        <ele>0</ele>
        <time>2017-11-25T13:20:08Z</time>
      </trkpt>
      <trkpt lat="59.216954476407" lon="17.765165560259">
        <ele>0</ele>
        <time>2017-11-25T13:20:16Z</time>
      </trkpt>
      <trkpt lat="59.216824556957" lon="17.766282616072">
        <ele>0</ele>
        <time>2017-11-25T13:20:23Z</time>
      </trkpt>
      <trkpt lat="59.216693128765" lon="17.767109490507">
        <ele>0</ele>
        <time>2017-11-25T13:20:28Z</time>
      </trkpt>
      <trkpt lat="59.216593887069" lon="17.767577368165">
        <ele>0</ele>
        <time>2017-11-25T13:20:31Z</time>
      </trkpt>
      <trkpt lat="59.216524401118" lon="17.767866627534">
        <ele>0</ele>
        <time>2017-11-25T13:20:33Z</time>
      </trkpt>
      <trkpt lat="59.216417196617" lon="17.768273065865">
        <ele>0</ele>
        <time>2017-11-25T13:20:36Z</time>
      </trkpt>
      <trkpt lat="59.216132295836" lon="17.769256262735">
        <ele>0</ele>
        <time>2017-11-25T13:20:44Z</time>
      </trkpt>
      <trkpt lat="59.215796600741" lon="17.770127309783">
        <ele>0</ele>
        <time>2017-11-25T13:20:52Z</time>
      </trkpt>
      <trkpt lat="59.215470963926" lon="17.770999027383">
        <ele>0</ele>
        <time>2017-11-25T13:21:00Z</time>
      </trkpt>
      <trkpt lat="59.215164102567" lon="17.772027905608">
        <ele>0</ele>
        <time>2017-11-25T13:21:08Z</time>
      </trkpt>
      <trkpt lat="59.215005097924" lon="17.773063405534">
        <ele>0</ele>
        <time>2017-11-25T13:21:15Z</time>
      </trkpt>
      <trkpt lat="59.214990681056" lon="17.773526337871">
        <ele>0</ele>
        <time>2017-11-25T13:21:18Z</time>
      </trkpt>
      <trkpt lat="59.215088497829" lon="17.774681363691">
        <ele>0</ele>
        <time>2017-11-25T13:21:26Z</time>
      </trkpt>
      <trkpt lat="59.215109117303" lon="17.77482058705">
        <ele>0</ele>
        <time>2017-11-25T13:21:27Z</time>
      </trkpt>
      <trkpt lat="59.21537758956" lon="17.775839574633">
        <ele>0</ele>
        <time>2017-11-25T13:21:35Z</time>
      </trkpt>
      <trkpt lat="59.215761229123" lon="17.776708442387">
        <ele>0</ele>
        <time>2017-11-25T13:21:43Z</time>
      </trkpt>
      <trkpt lat="59.216060965867" lon="17.77732593696">
        <ele>0</ele>
        <time>2017-11-25T13:21:49Z</time>
      </trkpt>
      <trkpt lat="59.216480815238" lon="17.778015348235">
        <ele>0</ele>
        <time>2017-11-25T13:21:57Z</time>
      </trkpt>
      <trkpt lat="59.216689524548" lon="17.778291699478">
        <ele>0</ele>
        <time>2017-11-25T13:22:01Z</time>
      </trkpt>
      <trkpt lat="59.216597239829" lon="17.779008687204">
        <ele>0</ele>
        <time>2017-11-25T13:22:09Z</time>
      </trkpt>
      <trkpt lat="59.216239584156" lon="17.779290989596">
        <ele>0</ele>
        <time>2017-11-25T13:22:15Z</time>
      </trkpt>
      <trkpt lat="59.216174456793" lon="17.779314375097">
        <ele>0</ele>
        <time>2017-11-25T13:22:16Z</time>
      </trkpt>
      <trkpt lat="59.215583113748" lon="17.779334156381">
        <ele>0</ele>
        <time>2017-11-25T13:22:26Z</time>
      </trkpt>
      <trkpt lat="59.21533484187" lon="17.779327450861">
        <ele>0</ele>
        <time>2017-11-25T13:22:31Z</time>
      </trkpt>
      <trkpt lat="59.21512780894" lon="17.77932250554">
        <ele>0</ele>
        <time>2017-11-25T13:22:35Z</time>
      </trkpt>
      <trkpt lat="59.214907616427" lon="17.779309597414">
        <ele>0</ele>
        <time>2017-11-25T13:22:39Z</time>
      </trkpt>
      <trkpt lat="59.214685328439" lon="17.779293839442">
        <ele>0</ele>
        <time>2017-11-25T13:22:43Z</time>
      </trkpt>
      <trkpt lat="59.214464633012" lon="17.779269112837">
        <ele>0</ele>
        <time>2017-11-25T13:22:47Z</time>
      </trkpt>
      <trkpt lat="59.214082669829" lon="17.779236758703">
        <ele>0</ele>
        <time>2017-11-25T13:22:54Z</time>
      </trkpt>
      <trkpt lat="59.213533236284" lon="17.779211529184">
        <ele>0</ele>
        <time>2017-11-25T13:23:04Z</time>
      </trkpt>
      <trkpt lat="59.213201313044" lon="17.779193089004">
        <ele>0</ele>
        <time>2017-11-25T13:23:10Z</time>
      </trkpt>
      <trkpt lat="59.212765873339" lon="17.77916408763">
        <ele>0</ele>
        <time>2017-11-25T13:23:18Z</time>
      </trkpt>
      <trkpt lat="59.212320123897" lon="17.779127626365">
        <ele>0</ele>
        <time>2017-11-25T13:23:26Z</time>
      </trkpt>
      <trkpt lat="59.211934724135" lon="17.77906769578">
        <ele>0</ele>
        <time>2017-11-25T13:23:33Z</time>
      </trkpt>
      <trkpt lat="59.211485538114" lon="17.778958898718">
        <ele>0</ele>
        <time>2017-11-25T13:23:42Z</time>
      </trkpt>
      <trkpt lat="59.211304572893" lon="17.778913133544">
        <ele>0</ele>
        <time>2017-11-25T13:23:46Z</time>
      </trkpt>
      <trkpt lat="59.211087314045" lon="17.778876337003">
        <ele>0</ele>
        <time>2017-11-25T13:23:51Z</time>
      </trkpt>
      <trkpt lat="59.211044901631" lon="17.778882120514">
        <ele>0</ele>
        <time>2017-11-25T13:23:52Z</time>
      </trkpt>
      <trkpt lat="59.21095865188" lon="17.778908607318">
        <ele>0</ele>
        <time>2017-11-25T13:23:54Z</time>
      </trkpt>
      <trkpt lat="59.210875754889" lon="17.778971471568">
        <ele>0</ele>
        <time>2017-11-25T13:23:56Z</time>
      </trkpt>
      <trkpt lat="59.210754804072" lon="17.779115221153">
        <ele>0</ele>
        <time>2017-11-25T13:23:59Z</time>
      </trkpt>
      <trkpt lat="59.210715744418" lon="17.779177582489">
        <ele>0</ele>
        <time>2017-11-25T13:24:00Z</time>
      </trkpt>
      <trkpt lat="59.210563277657" lon="17.779446976755">
        <ele>0</ele>
        <time>2017-11-25T13:24:04Z</time>
      </trkpt>
      <trkpt lat="59.210247447665" lon="17.780039325628">
        <ele>0</ele>
        <time>2017-11-25T13:24:12Z</time>
      </trkpt>
      <trkpt lat="59.210206376355" lon="17.780114259814">
        <ele>0</ele>
        <time>2017-11-25T13:24:13Z</time>
      </trkpt>
      <trkpt lat="59.209844529732" lon="17.780787494022">
        <ele>0</ele>
        <time>2017-11-25T13:24:22Z</time>
      </trkpt>
      <trkpt lat="59.209455358115" lon="17.781541362108">
        <ele>0</ele>
        <time>2017-11-25T13:24:32Z</time>
      </trkpt>
      <trkpt lat="59.209416969013" lon="17.781616715389">
        <ele>0</ele>
        <time>2017-11-25T13:24:33Z</time>
      </trkpt>
      <trkpt lat="59.209063169014" lon="17.782300846067">
        <ele>0</ele>
        <time>2017-11-25T13:24:42Z</time>
      </trkpt>
      <trkpt lat="59.208646001851" lon="17.783111375797">
        <ele>0</ele>
        <time>2017-11-25T13:24:52Z</time>
      </trkpt>
      <trkpt lat="59.208416756886" lon="17.783541786362">
        <ele>0</ele>
        <time>2017-11-25T13:24:57Z</time>
      </trkpt>
      <trkpt lat="59.207964218105" lon="17.784292636964">
        <ele>0</ele>
        <time>2017-11-25T13:25:06Z</time>
      </trkpt>
      <trkpt lat="59.207458705716" lon="17.784884566742">
        <ele>0</ele>
        <time>2017-11-25T13:25:15Z</time>
      </trkpt>
      <trkpt lat="59.207328031895" lon="17.785065951058">
        <ele>0</ele>
        <time>2017-11-25T13:25:18Z</time>
      </trkpt>
      <trkpt lat="59.207235747176" lon="17.785443388015">
        <ele>0</ele>
        <time>2017-11-25T13:25:23Z</time>
      </trkpt>
      <trkpt lat="59.207207081078" lon="17.785706076761">
        <ele>0</ele>
        <time>2017-11-25T13:25:27Z</time>
      </trkpt>
      <trkpt lat="59.207173888754" lon="17.785858040608">
        <ele>0</ele>
        <time>2017-11-25T13:25:30Z</time>
      </trkpt>
      <trkpt lat="59.207118987309" lon="17.786032887042">
        <ele>0</ele>
        <time>2017-11-25T13:25:34Z</time>
      </trkpt>
      <trkpt lat="59.207090907944" lon="17.786120645535">
        <ele>0</ele>
        <time>2017-11-25T13:25:36Z</time>
      </trkpt>
      <trkpt lat="59.207045645684" lon="17.786248804786">
        <ele>0</ele>
        <time>2017-11-25T13:25:39Z</time>
      </trkpt>
      <trkpt lat="59.207007005125" lon="17.786381574082">
        <ele>0</ele>
        <time>2017-11-25T13:25:42Z</time>
      </trkpt>
      <trkpt lat="59.206961826684" lon="17.786505290926">
        <ele>0</ele>
        <time>2017-11-25T13:25:45Z</time>
      </trkpt>
      <trkpt lat="59.206892256914" lon="17.786671923098">
        <ele>0</ele>
        <time>2017-11-25T13:25:49Z</time>
      </trkpt>
      <trkpt lat="59.20680625862" lon="17.786845093152">
        <ele>0</ele>
        <time>2017-11-25T13:25:53Z</time>
      </trkpt>
      <trkpt lat="59.206712465159" lon="17.787014239894">
        <ele>0</ele>
        <time>2017-11-25T13:25:57Z</time>
      </trkpt>
      <trkpt lat="59.206604171011" lon="17.787223871213">
        <ele>0</ele>
        <time>2017-11-25T13:26:02Z</time>
      </trkpt>
      <trkpt lat="59.206560920407" lon="17.787305259462">
        <ele>0</ele>
        <time>2017-11-25T13:26:04Z</time>
      </trkpt>
      <trkpt lat="59.206476682312" lon="17.7874730651">
        <ele>0</ele>
        <time>2017-11-25T13:26:08Z</time>
      </trkpt>
      <trkpt lat="59.206388504724" lon="17.787646235154">
        <ele>0</ele>
        <time>2017-11-25T13:26:12Z</time>
      </trkpt>
      <trkpt lat="59.206305356276" lon="17.787823596158">
        <ele>0</ele>
        <time>2017-11-25T13:26:16Z</time>
      </trkpt>
      <trkpt lat="59.20621365829" lon="17.788023420654">
        <ele>0</ele>
        <time>2017-11-25T13:26:21Z</time>
      </trkpt>
      <trkpt lat="59.206165630003" lon="17.788147137498">
        <ele>0</ele>
        <time>2017-11-25T13:26:24Z</time>
      </trkpt>
      <trkpt lat="59.206062867909" lon="17.788332042212">
        <ele>0</ele>
        <time>2017-11-25T13:26:29Z</time>
      </trkpt>
      <trkpt lat="59.205972175751" lon="17.788478725462">
        <ele>0</ele>
        <time>2017-11-25T13:26:33Z</time>
      </trkpt>
      <trkpt lat="59.205878130833" lon="17.788617362088">
        <ele>0</ele>
        <time>2017-11-25T13:26:37Z</time>
      </trkpt>
      <trkpt lat="59.205812919651" lon="17.7887303501">
        <ele>0</ele>
        <time>2017-11-25T13:26:40Z</time>
      </trkpt>
      <trkpt lat="59.205701356562" lon="17.788932940623">
        <ele>0</ele>
        <time>2017-11-25T13:26:45Z</time>
      </trkpt>
      <trkpt lat="59.205611502594" lon="17.78909244818">
        <ele>0</ele>
        <time>2017-11-25T13:26:49Z</time>
      </trkpt>
      <trkpt lat="59.205525839576" lon="17.789262852207">
        <ele>0</ele>
        <time>2017-11-25T13:26:53Z</time>
      </trkpt>
      <trkpt lat="59.205421904016" lon="17.789463095798">
        <ele>0</ele>
        <time>2017-11-25T13:26:58Z</time>
      </trkpt>
      <trkpt lat="59.205370690607" lon="17.78959703856">
        <ele>0</ele>
        <time>2017-11-25T13:27:01Z</time>
      </trkpt>
      <trkpt lat="59.205390136615" lon="17.789798707074">
        <ele>0</ele>
        <time>2017-11-25T13:27:05Z</time>
      </trkpt>
      <trkpt lat="59.205479152393" lon="17.789965506884">
        <ele>0</ele>
        <time>2017-11-25T13:27:09Z</time>
      </trkpt>
      <trkpt lat="59.205580405745" lon="17.79012509826">
        <ele>0</ele>
        <time>2017-11-25T13:27:13Z</time>
      </trkpt>
      <trkpt lat="59.205718204181" lon="17.790419973502">
        <ele>0</ele>
        <time>2017-11-25T13:27:19Z</time>
      </trkpt>
      <trkpt lat="59.2057099061" lon="17.790478060069">
        <ele>0</ele>
        <time>2017-11-25T13:27:20Z</time>
      </trkpt>
      <trkpt lat="59.205643605271" lon="17.790617702523">
        <ele>0</ele>
        <time>2017-11-25T13:27:23Z</time>
      </trkpt>
      <trkpt lat="59.205543190109" lon="17.790794895889">
        <ele>0</ele>
        <time>2017-11-25T13:27:27Z</time>
      </trkpt>
      <trkpt lat="59.205435901789" lon="17.790971921617">
        <ele>0</ele>
        <time>2017-11-25T13:27:31Z</time>
      </trkpt>
      <trkpt lat="59.205359375042" lon="17.791081137774">
        <ele>0</ele>
        <time>2017-11-25T13:27:34Z</time>
      </trkpt>
      <trkpt lat="59.205319896293" lon="17.791147270965">
        <ele>0</ele>
        <time>2017-11-25T13:27:38Z</time>
      </trkpt>
      <trkpt lat="59.205234400913" lon="17.791164370041">
        <ele>59</ele>
        <time>2017-11-25T14:03:04Z</time>
      </trkpt>
      <trkpt lat="59.204674238536" lon="17.791360255044">
        <ele>0</ele>
        <time>2017-11-25T14:03:21Z</time>
      </trkpt>
      <trkpt lat="59.204106113354" lon="17.791551362364">
        <ele>0</ele>
        <time>2017-11-25T14:03:34Z</time>
      </trkpt>
      <trkpt lat="59.203998741215" lon="17.791608862198">
        <ele>0</ele>
        <time>2017-11-25T14:03:36Z</time>
      </trkpt>
      <trkpt lat="59.203447882747" lon="17.791796700577">
        <ele>0</ele>
        <time>2017-11-25T14:03:46Z</time>
      </trkpt>
      <trkpt lat="59.202890821673" lon="17.791995351607">
        <ele>0</ele>
        <time>2017-11-25T14:03:56Z</time>
      </trkpt>
      <trkpt lat="59.202315320419" lon="17.792016557814">
        <ele>0</ele>
        <time>2017-11-25T14:04:07Z</time>
      </trkpt>
      <trkpt lat="59.202219012388" lon="17.791974229219">
        <ele>0</ele>
        <time>2017-11-25T14:04:09Z</time>
      </trkpt>
      <trkpt lat="59.202085237264" lon="17.79149218615">
        <ele>0</ele>
        <time>2017-11-25T14:04:15Z</time>
      </trkpt>
      <trkpt lat="59.202078364106" lon="17.790938477836">
        <ele>0</ele>
        <time>2017-11-25T14:04:20Z</time>
      </trkpt>
      <trkpt lat="59.202042908669" lon="17.790718955875">
        <ele>0</ele>
        <time>2017-11-25T14:04:22Z</time>
      </trkpt>
      <trkpt lat="59.2020051063" lon="17.790506809986">
        <ele>0</ele>
        <time>2017-11-25T14:04:24Z</time>
      </trkpt>
      <trkpt lat="59.201681313503" lon="17.789585639176">
        <ele>0</ele>
        <time>2017-11-25T14:04:34Z</time>
      </trkpt>
      <trkpt lat="59.201555668822" lon="17.789352203261">
        <ele>0</ele>
        <time>2017-11-25T14:04:37Z</time>
      </trkpt>
      <trkpt lat="59.201531193674" lon="17.788803691725">
        <ele>0</ele>
        <time>2017-11-25T14:04:43Z</time>
      </trkpt>
      <trkpt lat="59.201687767566" lon="17.788548630508">
        <ele>0</ele>
        <time>2017-11-25T14:04:46Z</time>
      </trkpt>
      <trkpt lat="59.201841323974" lon="17.788430445718">
        <ele>0</ele>
        <time>2017-11-25T14:04:48Z</time>
      </trkpt>
      <trkpt lat="59.201920700567" lon="17.788388871494">
        <ele>0</ele>
        <time>2017-11-25T14:04:49Z</time>
      </trkpt>
      <trkpt lat="59.202060091564" lon="17.788317038611">
        <ele>0</ele>
        <time>2017-11-25T14:04:51Z</time>
      </trkpt>
      <trkpt lat="59.2021811262" lon="17.788256688931">
        <ele>0</ele>
        <time>2017-11-25T14:04:53Z</time>
      </trkpt>
      <trkpt lat="59.202292102556" lon="17.788190723378">
        <ele>0</ele>
        <time>2017-11-25T14:04:55Z</time>
      </trkpt>
      <trkpt lat="59.202384974008" lon="17.788063402317">
        <ele>0</ele>
        <time>2017-11-25T14:04:57Z</time>
      </trkpt>
      <trkpt lat="59.202440797462" lon="17.787775316414">
        <ele>0</ele>
        <time>2017-11-25T14:05:00Z</time>
      </trkpt>
      <trkpt lat="59.202452448303" lon="17.787687809378">
        <ele>0</ele>
        <time>2017-11-25T14:05:01Z</time>
      </trkpt>
      <trkpt lat="59.202474660338" lon="17.787609857708">
        <ele>0</ele>
        <time>2017-11-25T14:05:02Z</time>
      </trkpt>
      <trkpt lat="59.202553366379" lon="17.787516399523">
        <ele>0</ele>
        <time>2017-11-25T14:05:04Z</time>
      </trkpt>
      <trkpt lat="59.202659900328" lon="17.78747474148">
        <ele>0</ele>
        <time>2017-11-25T14:05:06Z</time>
      </trkpt>
      <trkpt lat="59.202776157281" lon="17.787429395401">
        <ele>0</ele>
        <time>2017-11-25T14:05:08Z</time>
      </trkpt>
      <trkpt lat="59.20289107313" lon="17.787363765124">
        <ele>0</ele>
        <time>2017-11-25T14:05:10Z</time>
      </trkpt>
      <trkpt lat="59.203021998408" lon="17.78716209661">
        <ele>0</ele>
        <time>2017-11-25T14:05:13Z</time>
      </trkpt>
      <trkpt lat="59.203065249012" lon="17.786385681213">
        <ele>0</ele>
        <time>2017-11-25T14:05:20Z</time>
      </trkpt>
      <trkpt lat="59.203040187131" lon="17.786267244966">
        <ele>0</ele>
        <time>2017-11-25T14:05:21Z</time>
      </trkpt>
      <trkpt lat="59.202770709046" lon="17.785246413365">
        <ele>0</ele>
        <time>2017-11-25T14:05:30Z</time>
      </trkpt>
      <trkpt lat="59.202536015846" lon="17.784297079371">
        <ele>0</ele>
        <time>2017-11-25T14:05:39Z</time>
      </trkpt>
      <trkpt lat="59.202255557472" lon="17.783306841705">
        <ele>0</ele>
        <time>2017-11-25T14:05:49Z</time>
      </trkpt>
      <trkpt lat="59.201997143495" lon="17.782873581294">
        <ele>0</ele>
        <time>2017-11-25T14:05:56Z</time>
      </trkpt>
      <trkpt lat="59.201933105779" lon="17.782792779778">
        <ele>0</ele>
        <time>2017-11-25T14:05:58Z</time>
      </trkpt>
      <trkpt lat="59.201870409167" lon="17.782726143673">
        <ele>0</ele>
        <time>2017-11-25T14:06:00Z</time>
      </trkpt>
      <trkpt lat="59.201835959558" lon="17.782699321593">
        <ele>0</ele>
        <time>2017-11-25T14:06:01Z</time>
      </trkpt>
      <trkpt lat="59.201714422008" lon="17.782608042702">
        <ele>0</ele>
        <time>2017-11-25T14:06:05Z</time>
      </trkpt>
      <trkpt lat="59.201687599928" lon="17.782513746327">
        <ele>0</ele>
        <time>2017-11-25T14:06:07Z</time>
      </trkpt>
      <trkpt lat="59.201702268253" lon="17.782302187171">
        <ele>0</ele>
        <time>2017-11-25T14:06:10Z</time>
      </trkpt>
      <trkpt lat="59.201697239113" lon="17.782221637112">
        <ele>0</ele>
        <time>2017-11-25T14:06:11Z</time>
      </trkpt>
      <trkpt lat="59.201688941032" lon="17.781984680799">
        <ele>0</ele>
        <time>2017-11-25T14:06:14Z</time>
      </trkpt>
      <trkpt lat="59.201660694029" lon="17.781400713826">
        <ele>0</ele>
        <time>2017-11-25T14:06:21Z</time>
      </trkpt>
      <trkpt lat="59.201502946671" lon="17.781149843559">
        <ele>0</ele>
        <time>2017-11-25T14:06:25Z</time>
      </trkpt>
      <trkpt lat="59.201446704122" lon="17.781124865497">
        <ele>0</ele>
        <time>2017-11-25T14:06:26Z</time>
      </trkpt>
      <trkpt lat="59.201273198792" lon="17.781051859148">
        <ele>0</ele>
        <time>2017-11-25T14:06:29Z</time>
      </trkpt>
      <trkpt lat="59.201128108103" lon="17.780930321598">
        <ele>0</ele>
        <time>2017-11-25T14:06:32Z</time>
      </trkpt>
      <trkpt lat="59.201029369321" lon="17.780910205038">
        <ele>0</ele>
        <time>2017-11-25T14:06:34Z</time>
      </trkpt>
      <trkpt lat="59.200929457073" lon="17.780933339082">
        <ele>0</ele>
        <time>2017-11-25T14:06:36Z</time>
      </trkpt>
      <trkpt lat="59.200872627791" lon="17.780957730411">
        <ele>0</ele>
        <time>2017-11-25T14:06:37Z</time>
      </trkpt>
      <trkpt lat="59.200669450535" lon="17.781097372865">
        <ele>0</ele>
        <time>2017-11-25T14:06:40Z</time>
      </trkpt>
      <trkpt lat="59.200595857453" lon="17.781135175234">
        <ele>0</ele>
        <time>2017-11-25T14:06:41Z</time>
      </trkpt>
      <trkpt lat="59.200273573398" lon="17.781058564668">
        <ele>0</ele>
        <time>2017-11-25T14:06:45Z</time>
      </trkpt>
      <trkpt lat="59.200116831868" lon="17.780961502266">
        <ele>0</ele>
        <time>2017-11-25T14:06:47Z</time>
      </trkpt>
      <trkpt lat="59.200045250442" lon="17.780915317997">
        <ele>0</ele>
        <time>2017-11-25T14:06:48Z</time>
      </trkpt>
      <trkpt lat="59.199908038739" lon="17.780828984427">
        <ele>0</ele>
        <time>2017-11-25T14:06:50Z</time>
      </trkpt>
      <trkpt lat="59.199841234996" lon="17.78079352899">
        <ele>0</ele>
        <time>2017-11-25T14:06:51Z</time>
      </trkpt>
      <trkpt lat="59.199774515072" lon="17.780759917571">
        <ele>0</ele>
        <time>2017-11-25T14:06:52Z</time>
      </trkpt>
      <trkpt lat="59.199640823767" lon="17.780686659765">
        <ele>0</ele>
        <time>2017-11-25T14:06:54Z</time>
      </trkpt>
      <trkpt lat="59.199244778992" lon="17.780452888574">
        <ele>0</ele>
        <time>2017-11-25T14:07:00Z</time>
      </trkpt>
      <trkpt lat="59.198963650066" lon="17.780289944438">
        <ele>0</ele>
        <time>2017-11-25T14:07:05Z</time>
      </trkpt>
      <trkpt lat="59.198923752222" lon="17.77986313809">
        <ele>0</ele>
        <time>2017-11-25T14:07:11Z</time>
      </trkpt>
      <trkpt lat="59.199040512089" lon="17.778805174672">
        <ele>0</ele>
        <time>2017-11-25T14:07:21Z</time>
      </trkpt>
      <trkpt lat="59.199222064043" lon="17.777756096068">
        <ele>0</ele>
        <time>2017-11-25T14:07:30Z</time>
      </trkpt>
      <trkpt lat="59.199501097494" lon="17.776748926964">
        <ele>0</ele>
        <time>2017-11-25T14:07:39Z</time>
      </trkpt>
      <trkpt lat="59.199780047126" lon="17.775700267455">
        <ele>0</ele>
        <time>2017-11-25T14:07:48Z</time>
      </trkpt>
      <trkpt lat="59.200056230731" lon="17.774672646515">
        <ele>0</ele>
        <time>2017-11-25T14:07:57Z</time>
      </trkpt>
      <trkpt lat="59.200359571692" lon="17.773681822116">
        <ele>0</ele>
        <time>2017-11-25T14:08:06Z</time>
      </trkpt>
      <trkpt lat="59.200752347526" lon="17.772949663151">
        <ele>0</ele>
        <time>2017-11-25T14:08:14Z</time>
      </trkpt>
      <trkpt lat="59.20115434345" lon="17.772171487555">
        <ele>0</ele>
        <time>2017-11-25T14:08:22Z</time>
      </trkpt>
      <trkpt lat="59.201520464842" lon="17.771393647235">
        <ele>0</ele>
        <time>2017-11-25T14:08:30Z</time>
      </trkpt>
      <trkpt lat="59.201795391162" lon="17.770824600044">
        <ele>0</ele>
        <time>2017-11-25T14:08:37Z</time>
      </trkpt>
      <trkpt lat="59.201958083841" lon="17.770561492203">
        <ele>0</ele>
        <time>2017-11-25T14:08:41Z</time>
      </trkpt>
      <trkpt lat="59.202157992156" lon="17.770282961666">
        <ele>0</ele>
        <time>2017-11-25T14:08:46Z</time>
      </trkpt>
      <trkpt lat="59.202400061428" lon="17.769969227149">
        <ele>0</ele>
        <time>2017-11-25T14:08:52Z</time>
      </trkpt>
      <trkpt lat="59.202657301939" lon="17.769513670884">
        <ele>0</ele>
        <time>2017-11-25T14:09:00Z</time>
      </trkpt>
      <trkpt lat="59.202770289951" lon="17.769266069558">
        <ele>0</ele>
        <time>2017-11-25T14:09:04Z</time>
      </trkpt>
      <trkpt lat="59.203094501843" lon="17.768334756649">
        <ele>0</ele>
        <time>2017-11-25T14:09:14Z</time>
      </trkpt>
      <trkpt lat="59.203395747329" lon="17.767432445114">
        <ele>0</ele>
        <time>2017-11-25T14:09:23Z</time>
      </trkpt>
      <trkpt lat="59.203673774952" lon="17.76639342479">
        <ele>0</ele>
        <time>2017-11-25T14:09:32Z</time>
      </trkpt>
      <trkpt lat="59.203991532781" lon="17.765500920078">
        <ele>0</ele>
        <time>2017-11-25T14:09:40Z</time>
      </trkpt>
      <trkpt lat="59.204333681939" lon="17.764669770874">
        <ele>0</ele>
        <time>2017-11-25T14:09:48Z</time>
      </trkpt>
      <trkpt lat="59.204578684876" lon="17.764100304588">
        <ele>0</ele>
        <time>2017-11-25T14:09:54Z</time>
      </trkpt>
      <trkpt lat="59.204524956897" lon="17.763404103974">
        <ele>0</ele>
        <time>2017-11-25T14:10:02Z</time>
      </trkpt>
      <trkpt lat="59.204379195656" lon="17.763055500753">
        <ele>0</ele>
        <time>2017-11-25T14:10:06Z</time>
      </trkpt>
      <trkpt lat="59.20432186346" lon="17.762734054888">
        <ele>0</ele>
        <time>2017-11-25T14:10:10Z</time>
      </trkpt>
      <trkpt lat="59.204243995609" lon="17.762315295164">
        <ele>0</ele>
        <time>2017-11-25T14:10:16Z</time>
      </trkpt>
      <trkpt lat="59.2042011641" lon="17.762183364058">
        <ele>0</ele>
        <time>2017-11-25T14:10:18Z</time>
      </trkpt>
      <trkpt lat="59.204164199921" lon="17.762063670526">
        <ele>0</ele>
        <time>2017-11-25T14:10:20Z</time>
      </trkpt>
      <trkpt lat="59.204117680376" lon="17.761942803528">
        <ele>0</ele>
        <time>2017-11-25T14:10:22Z</time>
      </trkpt>
      <trkpt lat="59.204039309611" lon="17.761733758942">
        <ele>0</ele>
        <time>2017-11-25T14:10:25Z</time>
      </trkpt>
      <trkpt lat="59.203795312502" lon="17.761128166667">
        <ele>0</ele>
        <time>2017-11-25T14:10:32Z</time>
      </trkpt>
      <trkpt lat="59.203356520037" lon="17.760491645181">
        <ele>0</ele>
        <time>2017-11-25T14:10:41Z</time>
      </trkpt>
      <trkpt lat="59.203090310893" lon="17.76013717463">
        <ele>0</ele>
        <time>2017-11-25T14:10:47Z</time>
      </trkpt>
      <trkpt lat="59.202769703218" lon="17.759730149566">
        <ele>0</ele>
        <time>2017-11-25T14:10:56Z</time>
      </trkpt>
      <trkpt lat="59.202697199783" lon="17.759679187614">
        <ele>0</ele>
        <time>2017-11-25T14:10:58Z</time>
      </trkpt>
      <trkpt lat="59.202579434088" lon="17.759641469064">
        <ele>0</ele>
        <time>2017-11-25T14:11:01Z</time>
      </trkpt>
      <trkpt lat="59.202436103598" lon="17.759541640635">
        <ele>0</ele>
        <time>2017-11-25T14:11:05Z</time>
      </trkpt>
      <trkpt lat="59.202330240201" lon="17.759418342886">
        <ele>0</ele>
        <time>2017-11-25T14:11:08Z</time>
      </trkpt>
      <trkpt lat="59.20212580566" lon="17.759025064138">
        <ele>0</ele>
        <time>2017-11-25T14:11:15Z</time>
      </trkpt>
      <trkpt lat="59.202080040486" lon="17.75887737506">
        <ele>0</ele>
        <time>2017-11-25T14:11:17Z</time>
      </trkpt>
      <trkpt lat="59.202024552308" lon="17.758511002211">
        <ele>0</ele>
        <time>2017-11-25T14:11:21Z</time>
      </trkpt>
      <trkpt lat="59.201984067731" lon="17.757421522849">
        <ele>0</ele>
        <time>2017-11-25T14:11:33Z</time>
      </trkpt>
      <trkpt lat="59.201985492654" lon="17.757328148483">
        <ele>0</ele>
        <time>2017-11-25T14:11:34Z</time>
      </trkpt>
      <trkpt lat="59.202000160979" lon="17.756941407617">
        <ele>0</ele>
        <time>2017-11-25T14:11:38Z</time>
      </trkpt>
      <trkpt lat="59.2020051063" lon="17.756845099586">
        <ele>0</ele>
        <time>2017-11-25T14:11:39Z</time>
      </trkpt>
      <trkpt lat="59.202028910896" lon="17.756511751423">
        <ele>0</ele>
        <time>2017-11-25T14:11:43Z</time>
      </trkpt>
      <trkpt lat="59.202079872848" lon="17.755982434438">
        <ele>0</ele>
        <time>2017-11-25T14:11:49Z</time>
      </trkpt>
      <trkpt lat="59.202106359652" lon="17.755676914183">
        <ele>0</ele>
        <time>2017-11-25T14:11:52Z</time>
      </trkpt>
      <trkpt lat="59.202268717055" lon="17.754647197768">
        <ele>0</ele>
        <time>2017-11-25T14:12:02Z</time>
      </trkpt>
      <trkpt lat="59.202389164958" lon="17.754154677324">
        <ele>0</ele>
        <time>2017-11-25T14:12:07Z</time>
      </trkpt>
      <trkpt lat="59.202424452757" lon="17.753956864484">
        <ele>0</ele>
        <time>2017-11-25T14:12:09Z</time>
      </trkpt>
      <trkpt lat="59.202657469577" lon="17.75370155181">
        <ele>0</ele>
        <time>2017-11-25T14:12:16Z</time>
      </trkpt>
      <trkpt lat="59.202725027691" lon="17.753634915705">
        <ele>0</ele>
        <time>2017-11-25T14:12:18Z</time>
      </trkpt>
      <trkpt lat="59.2028265325" lon="17.753531231602">
        <ele>0</ele>
        <time>2017-11-25T14:12:21Z</time>
      </trkpt>
      <trkpt lat="59.202896689003" lon="17.753466271877">
        <ele>0</ele>
        <time>2017-11-25T14:12:23Z</time>
      </trkpt>
      <trkpt lat="59.203066841573" lon="17.753296035488">
        <ele>0</ele>
        <time>2017-11-25T14:12:28Z</time>
      </trkpt>
      <trkpt lat="59.203241939464" lon="17.753202409665">
        <ele>0</ele>
        <time>2017-11-25T14:12:33Z</time>
      </trkpt>
      <trkpt lat="59.203299858393" lon="17.753228561193">
        <ele>0</ele>
        <time>2017-11-25T14:12:35Z</time>
      </trkpt>
      <trkpt lat="59.203329362681" lon="17.753430564983">
        <ele>0</ele>
        <time>2017-11-25T14:12:39Z</time>
      </trkpt>
      <trkpt lat="59.203331458156" lon="17.753485550247">
        <ele>0</ele>
        <time>2017-11-25T14:12:40Z</time>
      </trkpt>
      <trkpt lat="59.203351155621" lon="17.753706078036">
        <ele>0</ele>
        <time>2017-11-25T14:12:44Z</time>
      </trkpt>
      <trkpt lat="59.203358280236" lon="17.753882517031">
        <ele>0</ele>
        <time>2017-11-25T14:12:47Z</time>
      </trkpt>
      <trkpt lat="59.203333469812" lon="17.753929371852">
        <ele>0</ele>
        <time>2017-11-25T14:12:48Z</time>
      </trkpt>
      <trkpt lat="59.203257865074" lon="17.753979076519">
        <ele>0</ele>
        <time>2017-11-25T14:12:50Z</time>
      </trkpt>
      <trkpt lat="59.203217464316" lon="17.754005563323">
        <ele>0</ele>
        <time>2017-11-25T14:12:51Z</time>
      </trkpt>
      <trkpt lat="59.202898784478" lon="17.754721880497">
        <ele>0</ele>
        <time>2017-11-25T14:13:05Z</time>
      </trkpt>
      <trkpt lat="59.202863245222" lon="17.754736381184">
        <ele>0</ele>
        <time>2017-11-25T14:13:09Z</time>
      </trkpt>
    </trkseg>
  </trk>
</gpx>